sensor_id;sensor_type;location;lat;lon;timestamp;temperature;humidity
7512;DHT22;9999;48.780;9.146;2023-02-12T00:00:19;5.70;99.90
7512;DHT22;9999;48.780;9.146;2023-02-12T00:02:47;5.60;99.90
7512;DHT22;9999;48.780;9.146;2023-02-12T00:05:14;5.60;99.90
7512;DHT22;9999;48.780;9.146;2023-02-12T00:07:41;5.70;99.90
7512;DHT22;9999;48.780;9.146;2023-02-12T00:10:09;5.70;99.90
7512;DHT22;9999;48.780;9.146;2023-02-12T00:12:36;5.80;99.90
7512;DHT22;9999;48.780;9.146;2023-02-12T00:15:05;5.90;99.90
7512;DHT22;9999;48.780;9.146;2023-02-12T00:17:32;5.90;99.90
7512;DHT22;9999;48.780;9.146;2023-02-12T00:19:59;5.90;99.90
7512;DHT22;9999;48.780;9.146;2023-02-12T00:22:25;6.00;99.90
7512;DHT22;9999;48.780;9.146;2023-02-12T00:24:54;6.00;99.90
7512;DHT22;9999;48.780;9.146;2023-02-12T00:27:21;6.00;99.90
7512;DHT22;9999;48.780;9.146;2023-02-12T00:29:48;6.00;99.90
7512;DHT22;9999;48.780;9.146;2023-02-12T00:32:16;6.00;99.90
7512;DHT22;9999;48.780;9.146;2023-02-12T00:34:44;6.00;99.90
7512;DHT22;9999;48.780;9.146;2023-02-12T00:37:12;6.00;99.90
7512;DHT22;9999;48.780;9.146;2023-02-12T00:39:39;6.00;99.90
7512;DHT22;9999;48.780;9.146;2023-02-12T00:42:06;6.00;99.90
7512;DHT22;9999;48.780;9.146;2023-02-12T00:44:33;5.90;99.90
7512;DHT22;9999;48.780;9.146;2023-02-12T00:47:02;5.90;99.90
7512;DHT22;9999;48.780;9.146;2023-02-12T00:49:31;5.90;99.90
7512;DHT22;9999;48.780;9.146;2023-02-12T00:51:59;5.90;99.90
7512;DHT22;9999;48.780;9.146;2023-02-12T00:54:26;5.80;99.90
7512;DHT22;9999;48.780;9.146;2023-02-12T00:56:53;5.80;99.90
7512;DHT22;9999;48.780;9.146;2023-02-12T00:59:21;5.70;99.90
7512;DHT22;9999;48.780;9.146;2023-02-12T01:01:48;5.70;99.90
7512;DHT22;9999;48.780;9.146;2023-02-12T01:04:15;5.70;99.90
7512;DHT22;9999;48.780;9.146;2023-02-12T01:06:44;5.70;99.90
7512;DHT22;9999;48.780;9.146;2023-02-12T01:09:11;5.60;99.90
7512;DHT22;9999;48.780;9.146;2023-02-12T01:11:38;5.60;99.90
7512;DHT22;9999;48.780;9.146;2023-02-12T01:14:05;5.70;99.90
7512;DHT22;9999;48.780;9.146;2023-02-12T01:16:33;5.80;99.90
7512;DHT22;9999;48.780;9.146;2023-02-12T01:19:03;5.80;99.90
7512;DHT22;9999;48.780;9.146;2023-02-12T01:21:31;5.90;99.90
7512;DHT22;9999;48.780;9.146;2023-02-12T01:24:00;5.80;99.90
7512;DHT22;9999;48.780;9.146;2023-02-12T01:26:28;5.80;99.90
7512;DHT22;9999;48.780;9.146;2023-02-12T01:28:57;5.80;99.90
7512;DHT22;9999;48.780;9.146;2023-02-12T01:31:28;5.80;99.90
7512;DHT22;9999;48.780;9.146;2023-02-12T01:33:57;5.70;99.90
7512;DHT22;9999;48.780;9.146;2023-02-12T01:36:25;5.70;99.90
7512;DHT22;9999;48.780;9.146;2023-02-12T01:38:54;5.70;99.90
7512;DHT22;9999;48.780;9.146;2023-02-12T01:41:24;5.80;99.90
7512;DHT22;9999;48.780;9.146;2023-02-12T01:44:10;5.60;99.90
7512;DHT22;9999;48.780;9.146;2023-02-12T01:46:37;5.60;99.90
7512;DHT22;9999;48.780;9.146;2023-02-12T01:49:06;5.60;99.90
7512;DHT22;9999;48.780;9.146;2023-02-12T01:51:35;5.60;99.90
7512;DHT22;9999;48.780;9.146;2023-02-12T01:54:05;5.60;99.90
7512;DHT22;9999;48.780;9.146;2023-02-12T01:56:34;5.60;99.90
7512;DHT22;9999;48.780;9.146;2023-02-12T01:59:01;5.50;99.90
7512;DHT22;9999;48.780;9.146;2023-02-12T02:01:31;5.60;99.90
7512;DHT22;9999;48.780;9.146;2023-02-12T02:04:01;5.70;99.90
7512;DHT22;9999;48.780;9.146;2023-02-12T02:06:31;5.80;99.90
7512;DHT22;9999;48.780;9.146;2023-02-12T02:09:00;5.70;99.90
7512;DHT22;9999;48.780;9.146;2023-02-12T02:11:27;5.60;99.90
7512;DHT22;9999;48.780;9.146;2023-02-12T02:14:13;5.50;99.90
7512;DHT22;9999;48.780;9.146;2023-02-12T02:17:11;5.50;99.90
7512;DHT22;9999;48.780;9.146;2023-02-12T02:20:16;5.50;99.90
7512;DHT22;9999;48.780;9.146;2023-02-12T02:22:50;5.60;99.90
7512;DHT22;9999;48.780;9.146;2023-02-12T02:25:45;5.60;99.90
7512;DHT22;9999;48.780;9.146;2023-02-12T02:28:38;5.60;99.90
7512;DHT22;9999;48.780;9.146;2023-02-12T02:31:16;5.60;99.90
7512;DHT22;9999;48.780;9.146;2023-02-12T02:33:50;5.60;99.90
7512;DHT22;9999;48.780;9.146;2023-02-12T02:36:26;5.60;99.90
7512;DHT22;9999;48.780;9.146;2023-02-12T02:38:57;5.60;99.90
7512;DHT22;9999;48.780;9.146;2023-02-12T02:41:30;5.60;99.90
7512;DHT22;9999;48.780;9.146;2023-02-12T02:44:04;5.60;99.90
7512;DHT22;9999;48.780;9.146;2023-02-12T02:46:38;5.60;99.90
7512;DHT22;9999;48.780;9.146;2023-02-12T02:49:11;5.60;99.90
7512;DHT22;9999;48.780;9.146;2023-02-12T02:51:41;5.60;99.90
7512;DHT22;9999;48.780;9.146;2023-02-12T02:54:12;5.60;99.90
7512;DHT22;9999;48.780;9.146;2023-02-12T02:56:44;5.60;99.90
7512;DHT22;9999;48.780;9.146;2023-02-12T02:59:13;5.70;99.90
7512;DHT22;9999;48.780;9.146;2023-02-12T03:01:49;5.70;99.90
7512;DHT22;9999;48.780;9.146;2023-02-12T03:04:20;5.60;99.90
7512;DHT22;9999;48.780;9.146;2023-02-12T03:06:53;5.60;99.90
7512;DHT22;9999;48.780;9.146;2023-02-12T03:09:23;5.70;99.90
7512;DHT22;9999;48.780;9.146;2023-02-12T03:11:54;5.60;99.90
7512;DHT22;9999;48.780;9.146;2023-02-12T03:14:27;5.60;99.90
7512;DHT22;9999;48.780;9.146;2023-02-12T03:16:58;5.70;99.90
7512;DHT22;9999;48.780;9.146;2023-02-12T03:19:29;5.70;99.90
7512;DHT22;9999;48.780;9.146;2023-02-12T03:22:01;5.70;99.90
7512;DHT22;9999;48.780;9.146;2023-02-12T03:24:32;5.70;99.90
7512;DHT22;9999;48.780;9.146;2023-02-12T03:27:05;5.70;99.90
7512;DHT22;9999;48.780;9.146;2023-02-12T03:29:33;5.60;99.90
7512;DHT22;9999;48.780;9.146;2023-02-12T03:32:14;5.60;99.90
7512;DHT22;9999;48.780;9.146;2023-02-12T03:34:48;5.70;99.90
7512;DHT22;9999;48.780;9.146;2023-02-12T03:37:20;5.70;99.90
7512;DHT22;9999;48.780;9.146;2023-02-12T03:39:52;5.70;99.90
7512;DHT22;9999;48.780;9.146;2023-02-12T03:42:31;5.60;99.90
7512;DHT22;9999;48.780;9.146;2023-02-12T03:45:03;5.60;99.90
7512;DHT22;9999;48.780;9.146;2023-02-12T03:47:41;5.60;99.90
7512;DHT22;9999;48.780;9.146;2023-02-12T03:50:12;5.60;99.90
7512;DHT22;9999;48.780;9.146;2023-02-12T03:52:41;5.50;99.90
7512;DHT22;9999;48.780;9.146;2023-02-12T03:55:09;5.60;99.90
7512;DHT22;9999;48.780;9.146;2023-02-12T03:57:39;5.60;99.90
7512;DHT22;9999;48.780;9.146;2023-02-12T04:00:11;5.60;99.90
7512;DHT22;9999;48.780;9.146;2023-02-12T04:02:42;5.70;99.90
7512;DHT22;9999;48.780;9.146;2023-02-12T04:05:16;5.60;99.90
7512;DHT22;9999;48.780;9.146;2023-02-12T04:07:44;5.70;99.90
7512;DHT22;9999;48.780;9.146;2023-02-12T04:10:11;5.70;99.90
7512;DHT22;9999;48.780;9.146;2023-02-12T04:12:39;5.60;99.90
7512;DHT22;9999;48.780;9.146;2023-02-12T04:15:33;5.50;99.90
7512;DHT22;9999;48.780;9.146;2023-02-12T04:18:09;5.40;99.90
7512;DHT22;9999;48.780;9.146;2023-02-12T04:20:46;5.60;99.90
7512;DHT22;9999;48.780;9.146;2023-02-12T04:23:24;5.60;99.90
7512;DHT22;9999;48.780;9.146;2023-02-12T04:26:01;5.70;99.90
7512;DHT22;9999;48.780;9.146;2023-02-12T04:28:38;5.70;99.90
7512;DHT22;9999;48.780;9.146;2023-02-12T04:31:12;5.70;99.90
7512;DHT22;9999;48.780;9.146;2023-02-12T04:33:47;5.70;99.90
7512;DHT22;9999;48.780;9.146;2023-02-12T04:36:21;5.70;99.90
7512;DHT22;9999;48.780;9.146;2023-02-12T04:38:51;5.70;99.90
7512;DHT22;9999;48.780;9.146;2023-02-12T04:41:19;5.70;99.90
7512;DHT22;9999;48.780;9.146;2023-02-12T04:43:46;5.60;99.90
7512;DHT22;9999;48.780;9.146;2023-02-12T04:46:13;5.50;99.90
7512;DHT22;9999;48.780;9.146;2023-02-12T04:48:50;5.50;99.90
7512;DHT22;9999;48.780;9.146;2023-02-12T04:51:17;5.40;99.90
7512;DHT22;9999;48.780;9.146;2023-02-12T04:53:45;5.40;99.90
7512;DHT22;9999;48.780;9.146;2023-02-12T04:56:12;5.50;99.90
7512;DHT22;9999;48.780;9.146;2023-02-12T04:58:40;5.50;99.90
7512;DHT22;9999;48.780;9.146;2023-02-12T05:01:07;5.50;99.90
7512;DHT22;9999;48.780;9.146;2023-02-12T05:03:34;5.40;99.90
7512;DHT22;9999;48.780;9.146;2023-02-12T05:06:04;5.40;99.90
7512;DHT22;9999;48.780;9.146;2023-02-12T05:08:31;5.50;99.90
7512;DHT22;9999;48.780;9.146;2023-02-12T05:11:02;5.50;99.90
7512;DHT22;9999;48.780;9.146;2023-02-12T05:13:29;5.50;99.90
7512;DHT22;9999;48.780;9.146;2023-02-12T05:15:56;5.40;99.90
7512;DHT22;9999;48.780;9.146;2023-02-12T05:18:23;5.40;99.90
7512;DHT22;9999;48.780;9.146;2023-02-12T05:20:54;5.30;99.90
7512;DHT22;9999;48.780;9.146;2023-02-12T05:23:25;5.30;99.90
7512;DHT22;9999;48.780;9.146;2023-02-12T05:25:52;5.30;99.90
7512;DHT22;9999;48.780;9.146;2023-02-12T05:28:19;5.40;99.90
7512;DHT22;9999;48.780;9.146;2023-02-12T05:30:46;5.40;99.90
7512;DHT22;9999;48.780;9.146;2023-02-12T05:33:13;5.50;99.90
7512;DHT22;9999;48.780;9.146;2023-02-12T05:35:40;5.50;99.90
7512;DHT22;9999;48.780;9.146;2023-02-12T05:38:07;5.40;99.90
7512;DHT22;9999;48.780;9.146;2023-02-12T05:40:35;5.40;99.90
7512;DHT22;9999;48.780;9.146;2023-02-12T05:43:02;5.50;99.90
7512;DHT22;9999;48.780;9.146;2023-02-12T05:45:31;5.50;99.90
7512;DHT22;9999;48.780;9.146;2023-02-12T05:47:58;5.50;99.90
7512;DHT22;9999;48.780;9.146;2023-02-12T05:50:25;5.50;99.90
7512;DHT22;9999;48.780;9.146;2023-02-12T05:52:58;5.50;99.90
7512;DHT22;9999;48.780;9.146;2023-02-12T05:55:25;5.50;99.90
7512;DHT22;9999;48.780;9.146;2023-02-12T05:57:54;5.40;99.90
7512;DHT22;9999;48.780;9.146;2023-02-12T06:00:21;5.30;99.90
7512;DHT22;9999;48.780;9.146;2023-02-12T06:02:48;5.20;99.90
7512;DHT22;9999;48.780;9.146;2023-02-12T06:05:15;5.10;99.90
7512;DHT22;9999;48.780;9.146;2023-02-12T06:07:42;5.20;99.90
7512;DHT22;9999;48.780;9.146;2023-02-12T06:10:09;5.20;99.90
7512;DHT22;9999;48.780;9.146;2023-02-12T06:12:36;5.10;99.90
7512;DHT22;9999;48.780;9.146;2023-02-12T06:15:05;5.10;99.90
7512;DHT22;9999;48.780;9.146;2023-02-12T06:17:33;5.10;99.90
7512;DHT22;9999;48.780;9.146;2023-02-12T06:20:00;5.10;99.90
7512;DHT22;9999;48.780;9.146;2023-02-12T06:22:27;5.10;99.90
7512;DHT22;9999;48.780;9.146;2023-02-12T06:24:53;5.10;99.90
7512;DHT22;9999;48.780;9.146;2023-02-12T06:27:20;5.20;99.90
7512;DHT22;9999;48.780;9.146;2023-02-12T06:29:47;5.10;99.90
7512;DHT22;9999;48.780;9.146;2023-02-12T06:32:15;5.00;99.90
7512;DHT22;9999;48.780;9.146;2023-02-12T06:34:42;5.00;99.90
7512;DHT22;9999;48.780;9.146;2023-02-12T06:37:09;5.00;99.90
7512;DHT22;9999;48.780;9.146;2023-02-12T06:39:37;5.00;99.90
7512;DHT22;9999;48.780;9.146;2023-02-12T06:42:04;5.00;99.90
7512;DHT22;9999;48.780;9.146;2023-02-12T06:44:31;5.10;99.90
7512;DHT22;9999;48.780;9.146;2023-02-12T06:46:58;5.10;99.90
7512;DHT22;9999;48.780;9.146;2023-02-12T06:49:26;5.20;99.90
7512;DHT22;9999;48.780;9.146;2023-02-12T06:51:53;5.30;99.90
7512;DHT22;9999;48.780;9.146;2023-02-12T06:54:20;5.30;99.90
7512;DHT22;9999;48.780;9.146;2023-02-12T06:56:47;5.40;99.90
7512;DHT22;9999;48.780;9.146;2023-02-12T06:59:15;5.40;99.90
7512;DHT22;9999;48.780;9.146;2023-02-12T07:01:42;5.40;99.90
7512;DHT22;9999;48.780;9.146;2023-02-12T07:04:10;5.40;99.90
7512;DHT22;9999;48.780;9.146;2023-02-12T07:06:38;5.30;99.90
7512;DHT22;9999;48.780;9.146;2023-02-12T07:09:05;5.30;99.90
7512;DHT22;9999;48.780;9.146;2023-02-12T07:11:34;5.30;99.90
7512;DHT22;9999;48.780;9.146;2023-02-12T07:14:01;5.40;99.90
7512;DHT22;9999;48.780;9.146;2023-02-12T07:16:28;5.40;99.90
7512;DHT22;9999;48.780;9.146;2023-02-12T07:18:55;5.40;99.90
7512;DHT22;9999;48.780;9.146;2023-02-12T07:21:22;5.40;99.90
7512;DHT22;9999;48.780;9.146;2023-02-12T07:23:51;5.50;99.90
7512;DHT22;9999;48.780;9.146;2023-02-12T07:26:19;5.50;99.90
7512;DHT22;9999;48.780;9.146;2023-02-12T07:28:47;5.50;99.90
7512;DHT22;9999;48.780;9.146;2023-02-12T07:31:17;5.50;99.90
7512;DHT22;9999;48.780;9.146;2023-02-12T07:33:44;5.40;99.90
7512;DHT22;9999;48.780;9.146;2023-02-12T07:36:13;5.50;99.90
7512;DHT22;9999;48.780;9.146;2023-02-12T07:38:41;5.50;99.90
7512;DHT22;9999;48.780;9.146;2023-02-12T07:41:11;5.50;99.90
7512;DHT22;9999;48.780;9.146;2023-02-12T07:43:39;5.50;99.90
7512;DHT22;9999;48.780;9.146;2023-02-12T07:46:08;5.50;99.90
7512;DHT22;9999;48.780;9.146;2023-02-12T07:48:35;5.50;99.90
7512;DHT22;9999;48.780;9.146;2023-02-12T07:51:04;5.50;99.90
7512;DHT22;9999;48.780;9.146;2023-02-12T07:53:31;5.50;99.90
7512;DHT22;9999;48.780;9.146;2023-02-12T07:56:05;5.50;99.90
7512;DHT22;9999;48.780;9.146;2023-02-12T07:58:33;5.50;99.90
7512;DHT22;9999;48.780;9.146;2023-02-12T08:01:09;5.60;99.90
7512;DHT22;9999;48.780;9.146;2023-02-12T08:03:36;5.60;99.90
7512;DHT22;9999;48.780;9.146;2023-02-12T08:06:06;5.60;99.90
7512;DHT22;9999;48.780;9.146;2023-02-12T08:08:33;5.60;99.90
7512;DHT22;9999;48.780;9.146;2023-02-12T08:11:03;5.70;99.90
7512;DHT22;9999;48.780;9.146;2023-02-12T08:13:32;5.60;99.90
7512;DHT22;9999;48.780;9.146;2023-02-12T08:16:00;5.60;99.90
7512;DHT22;9999;48.780;9.146;2023-02-12T08:18:27;5.70;99.90
7512;DHT22;9999;48.780;9.146;2023-02-12T08:21:00;5.60;99.90
7512;DHT22;9999;48.780;9.146;2023-02-12T08:23:27;5.60;99.90
7512;DHT22;9999;48.780;9.146;2023-02-12T08:25:55;5.50;99.90
7512;DHT22;9999;48.780;9.146;2023-02-12T08:28:29;5.50;99.90
7512;DHT22;9999;48.780;9.146;2023-02-12T08:31:00;5.60;99.90
7512;DHT22;9999;48.780;9.146;2023-02-12T08:33:27;5.50;99.90
7512;DHT22;9999;48.780;9.146;2023-02-12T08:36:00;5.60;99.90
7512;DHT22;9999;48.780;9.146;2023-02-12T08:38:27;5.60;99.90
7512;DHT22;9999;48.780;9.146;2023-02-12T08:40:54;5.60;99.90
7512;DHT22;9999;48.780;9.146;2023-02-12T08:43:21;5.60;99.90
7512;DHT22;9999;48.780;9.146;2023-02-12T08:45:48;5.60;99.90
7512;DHT22;9999;48.780;9.146;2023-02-12T08:48:16;5.70;99.90
7512;DHT22;9999;48.780;9.146;2023-02-12T08:50:45;5.70;99.90
7512;DHT22;9999;48.780;9.146;2023-02-12T08:53:12;5.70;99.90
7512;DHT22;9999;48.780;9.146;2023-02-12T08:55:39;5.80;99.90
7512;DHT22;9999;48.780;9.146;2023-02-12T08:58:13;5.80;99.90
7512;DHT22;9999;48.780;9.146;2023-02-12T09:00:40;5.90;99.90
7512;DHT22;9999;48.780;9.146;2023-02-12T09:03:07;6.00;99.90
7512;DHT22;9999;48.780;9.146;2023-02-12T09:05:38;6.10;99.90
7512;DHT22;9999;48.780;9.146;2023-02-12T09:08:05;6.10;99.90
7512;DHT22;9999;48.780;9.146;2023-02-12T09:10:32;6.10;99.90
7512;DHT22;9999;48.780;9.146;2023-02-12T09:12:59;6.10;99.90
7512;DHT22;9999;48.780;9.146;2023-02-12T09:15:26;6.10;99.90
7512;DHT22;9999;48.780;9.146;2023-02-12T09:17:53;6.10;99.90
7512;DHT22;9999;48.780;9.146;2023-02-12T09:20:21;6.10;99.90
7512;DHT22;9999;48.780;9.146;2023-02-12T09:22:49;6.20;99.90
7512;DHT22;9999;48.780;9.146;2023-02-12T09:25:18;6.30;99.90
7512;DHT22;9999;48.780;9.146;2023-02-12T09:27:45;6.20;99.90
7512;DHT22;9999;48.780;9.146;2023-02-12T09:30:13;6.30;99.90
7512;DHT22;9999;48.780;9.146;2023-02-12T09:32:40;6.40;99.90
7512;DHT22;9999;48.780;9.146;2023-02-12T09:35:07;6.40;99.90
7512;DHT22;9999;48.780;9.146;2023-02-12T09:37:36;6.50;99.90
7512;DHT22;9999;48.780;9.146;2023-02-12T09:40:06;6.50;99.90
7512;DHT22;9999;48.780;9.146;2023-02-12T09:42:51;6.60;99.90
7512;DHT22;9999;48.780;9.146;2023-02-12T09:45:26;6.60;99.90
7512;DHT22;9999;48.780;9.146;2023-02-12T09:48:03;6.60;99.90
7512;DHT22;9999;48.780;9.146;2023-02-12T09:50:43;6.50;99.90
7512;DHT22;9999;48.780;9.146;2023-02-12T09:53:13;6.60;99.90
7512;DHT22;9999;48.780;9.146;2023-02-12T09:55:43;6.70;99.90
7512;DHT22;9999;48.780;9.146;2023-02-12T09:58:14;6.70;99.90
7512;DHT22;9999;48.780;9.146;2023-02-12T10:00:41;6.70;99.90
7512;DHT22;9999;48.780;9.146;2023-02-12T10:03:12;6.80;99.90
7512;DHT22;9999;48.780;9.146;2023-02-12T10:05:44;6.80;99.90
7512;DHT22;9999;48.780;9.146;2023-02-12T10:08:29;6.70;99.90
7512;DHT22;9999;48.780;9.146;2023-02-12T10:11:14;6.80;99.90
7512;DHT22;9999;48.780;9.146;2023-02-12T10:13:49;6.90;99.90
7512;DHT22;9999;48.780;9.146;2023-02-12T10:16:34;6.90;99.90
7512;DHT22;9999;48.780;9.146;2023-02-12T10:19:17;7.00;99.90
7512;DHT22;9999;48.780;9.146;2023-02-12T10:21:55;7.10;99.90
7512;DHT22;9999;48.780;9.146;2023-02-12T10:24:38;7.10;99.90
7512;DHT22;9999;48.780;9.146;2023-02-12T10:27:13;7.10;99.90
7512;DHT22;9999;48.780;9.146;2023-02-12T10:29:43;7.10;99.90
7512;DHT22;9999;48.780;9.146;2023-02-12T10:32:19;7.10;99.90
7512;DHT22;9999;48.780;9.146;2023-02-12T10:34:48;7.00;99.90
7512;DHT22;9999;48.780;9.146;2023-02-12T10:37:24;7.00;99.90
7512;DHT22;9999;48.780;9.146;2023-02-12T10:39:55;7.10;99.90
7512;DHT22;9999;48.780;9.146;2023-02-12T10:42:32;7.10;99.90
7512;DHT22;9999;48.780;9.146;2023-02-12T10:45:02;7.30;99.90
7512;DHT22;9999;48.780;9.146;2023-02-12T10:47:29;7.20;99.90
7512;DHT22;9999;48.780;9.146;2023-02-12T10:49:58;7.20;99.90
7512;DHT22;9999;48.780;9.146;2023-02-12T10:52:35;7.30;99.90
7512;DHT22;9999;48.780;9.146;2023-02-12T10:55:26;7.40;99.90
7512;DHT22;9999;48.780;9.146;2023-02-12T10:57:57;7.50;99.90
7512;DHT22;9999;48.780;9.146;2023-02-12T11:00:29;7.50;99.90
7512;DHT22;9999;48.780;9.146;2023-02-12T11:03:02;7.50;99.90
7512;DHT22;9999;48.780;9.146;2023-02-12T11:05:32;7.60;99.90
7512;DHT22;9999;48.780;9.146;2023-02-12T11:07:59;7.60;99.90
7512;DHT22;9999;48.780;9.146;2023-02-12T11:10:28;7.70;99.90
7512;DHT22;9999;48.780;9.146;2023-02-12T11:12:58;7.70;99.90
7512;DHT22;9999;48.780;9.146;2023-02-12T11:15:27;7.70;99.90
7512;DHT22;9999;48.780;9.146;2023-02-12T11:17:58;7.70;99.90
7512;DHT22;9999;48.780;9.146;2023-02-12T11:20:28;7.80;99.90
7512;DHT22;9999;48.780;9.146;2023-02-12T11:22:58;7.80;99.90
7512;DHT22;9999;48.780;9.146;2023-02-12T11:25:28;7.90;99.90
7512;DHT22;9999;48.780;9.146;2023-02-12T11:28:14;7.80;99.90
7512;DHT22;9999;48.780;9.146;2023-02-12T11:30:53;7.90;99.90
7512;DHT22;9999;48.780;9.146;2023-02-12T11:33:29;7.80;99.90
7512;DHT22;9999;48.780;9.146;2023-02-12T11:35:58;7.80;99.90
7512;DHT22;9999;48.780;9.146;2023-02-12T11:38:29;7.70;99.90
7512;DHT22;9999;48.780;9.146;2023-02-12T11:41:00;7.80;99.90
7512;DHT22;9999;48.780;9.146;2023-02-12T11:43:29;7.90;99.90
7512;DHT22;9999;48.780;9.146;2023-02-12T11:45:58;8.00;99.90
7512;DHT22;9999;48.780;9.146;2023-02-12T11:48:29;8.00;99.90
7512;DHT22;9999;48.780;9.146;2023-02-12T11:50:59;8.00;99.90
7512;DHT22;9999;48.780;9.146;2023-02-12T11:53:29;7.90;99.90
7512;DHT22;9999;48.780;9.146;2023-02-12T11:55:59;8.00;99.90
7512;DHT22;9999;48.780;9.146;2023-02-12T11:58:27;8.00;99.90
7512;DHT22;9999;48.780;9.146;2023-02-12T12:01:02;7.90;99.90
7512;DHT22;9999;48.780;9.146;2023-02-12T12:03:34;8.10;99.90
7512;DHT22;9999;48.780;9.146;2023-02-12T12:06:19;8.20;99.90
7512;DHT22;9999;48.780;9.146;2023-02-12T12:08:52;8.20;99.90
7512;DHT22;9999;48.780;9.146;2023-02-12T12:11:24;8.30;99.90
7512;DHT22;9999;48.780;9.146;2023-02-12T12:13:58;8.30;99.90
7512;DHT22;9999;48.780;9.146;2023-02-12T12:16:32;8.20;99.90
7512;DHT22;9999;48.780;9.146;2023-02-12T12:19:22;8.20;99.90
7512;DHT22;9999;48.780;9.146;2023-02-12T12:22:15;8.20;99.90
7512;DHT22;9999;48.780;9.146;2023-02-12T12:24:48;8.30;99.90
7512;DHT22;9999;48.780;9.146;2023-02-12T12:27:23;8.30;99.90
7512;DHT22;9999;48.780;9.146;2023-02-12T12:30:19;8.30;99.90
7512;DHT22;9999;48.780;9.146;2023-02-12T12:32:51;8.40;99.90
7512;DHT22;9999;48.780;9.146;2023-02-12T12:35:26;8.40;99.90
7512;DHT22;9999;48.780;9.146;2023-02-12T12:38:01;8.30;99.90
7512;DHT22;9999;48.780;9.146;2023-02-12T12:40:50;8.30;99.90
7512;DHT22;9999;48.780;9.146;2023-02-12T12:43:27;8.40;99.90
7512;DHT22;9999;48.780;9.146;2023-02-12T12:46:08;8.40;99.90
7512;DHT22;9999;48.780;9.146;2023-02-12T12:48:51;8.50;99.90
7512;DHT22;9999;48.780;9.146;2023-02-12T12:51:39;8.50;99.90
7512;DHT22;9999;48.780;9.146;2023-02-12T12:54:21;8.50;99.90
7512;DHT22;9999;48.780;9.146;2023-02-12T12:56:57;8.40;99.90
7512;DHT22;9999;48.780;9.146;2023-02-12T12:59:44;8.50;99.90
7512;DHT22;9999;48.780;9.146;2023-02-12T13:02:50;8.50;99.90
7512;DHT22;9999;48.780;9.146;2023-02-12T13:05:53;8.50;99.90
7512;DHT22;9999;48.780;9.146;2023-02-12T13:08:36;8.50;99.90
7512;DHT22;9999;48.780;9.146;2023-02-12T13:11:15;8.70;99.90
7512;DHT22;9999;48.780;9.146;2023-02-12T13:13:46;9.00;99.90
7512;DHT22;9999;48.780;9.146;2023-02-12T13:16:16;9.30;99.90
7512;DHT22;9999;48.780;9.146;2023-02-12T13:18:53;9.40;99.90
7512;DHT22;9999;48.780;9.146;2023-02-12T13:21:38;9.50;99.90
7512;DHT22;9999;48.780;9.146;2023-02-12T13:24:15;9.50;99.90
7512;DHT22;9999;48.780;9.146;2023-02-12T13:26:49;9.60;99.90
7512;DHT22;9999;48.780;9.146;2023-02-12T13:29:19;9.70;99.90
7512;DHT22;9999;48.780;9.146;2023-02-12T13:31:51;9.70;99.90
7512;DHT22;9999;48.780;9.146;2023-02-12T13:34:19;9.90;99.90
7512;DHT22;9999;48.780;9.146;2023-02-12T13:36:49;10.00;99.90
7512;DHT22;9999;48.780;9.146;2023-02-12T13:39:24;10.00;99.90
7512;DHT22;9999;48.780;9.146;2023-02-12T13:42:02;10.10;99.90
7512;DHT22;9999;48.780;9.146;2023-02-12T13:44:35;10.10;99.90
7512;DHT22;9999;48.780;9.146;2023-02-12T13:47:10;10.10;99.90
7512;DHT22;9999;48.780;9.146;2023-02-12T13:49:46;10.10;99.90
7512;DHT22;9999;48.780;9.146;2023-02-12T13:52:25;10.00;99.90
7512;DHT22;9999;48.780;9.146;2023-02-12T13:55:08;10.00;99.90
7512;DHT22;9999;48.780;9.146;2023-02-12T13:57:36;9.90;99.90
7512;DHT22;9999;48.780;9.146;2023-02-12T14:00:05;10.00;99.90
7512;DHT22;9999;48.780;9.146;2023-02-12T14:02:44;10.00;99.90
7512;DHT22;9999;48.780;9.146;2023-02-12T14:05:21;9.90;99.90
7512;DHT22;9999;48.780;9.146;2023-02-12T14:07:52;10.00;99.90
7512;DHT22;9999;48.780;9.146;2023-02-12T14:10:22;10.10;99.90
7512;DHT22;9999;48.780;9.146;2023-02-12T14:12:50;10.20;99.90
7512;DHT22;9999;48.780;9.146;2023-02-12T14:15:28;10.10;99.90
7512;DHT22;9999;48.780;9.146;2023-02-12T14:18:04;10.10;99.90
7512;DHT22;9999;48.780;9.146;2023-02-12T14:20:32;10.10;99.90
7512;DHT22;9999;48.780;9.146;2023-02-12T14:25:59;10.10;99.90
7512;DHT22;9999;48.780;9.146;2023-02-12T14:28:33;10.00;99.90
7512;DHT22;9999;48.780;9.146;2023-02-12T14:31:29;10.00;99.90
7512;DHT22;9999;48.780;9.146;2023-02-12T14:37:35;9.90;99.90
7512;DHT22;9999;48.780;9.146;2023-02-12T14:40:40;9.90;99.90
7512;DHT22;9999;48.780;9.146;2023-02-12T14:43:31;9.80;99.90
7512;DHT22;9999;48.780;9.146;2023-02-12T14:46:42;9.80;99.90
7512;DHT22;9999;48.780;9.146;2023-02-12T14:49:18;9.80;99.90
7512;DHT22;9999;48.780;9.146;2023-02-12T14:51:52;9.80;99.90
7512;DHT22;9999;48.780;9.146;2023-02-12T14:54:27;9.70;99.90
7512;DHT22;9999;48.780;9.146;2023-02-12T14:56:57;9.70;99.90
7512;DHT22;9999;48.780;9.146;2023-02-12T14:59:32;9.70;99.90
7512;DHT22;9999;48.780;9.146;2023-02-12T15:02:03;9.60;99.90
7512;DHT22;9999;48.780;9.146;2023-02-12T15:04:35;9.50;99.90
7512;DHT22;9999;48.780;9.146;2023-02-12T15:07:06;9.40;99.90
7512;DHT22;9999;48.780;9.146;2023-02-12T15:09:36;9.40;99.90
7512;DHT22;9999;48.780;9.146;2023-02-12T15:12:14;9.40;99.90
7512;DHT22;9999;48.780;9.146;2023-02-12T15:14:50;9.40;99.90
7512;DHT22;9999;48.780;9.146;2023-02-12T15:17:26;9.30;99.90
7512;DHT22;9999;48.780;9.146;2023-02-12T15:19:57;9.30;99.90
7512;DHT22;9999;48.780;9.146;2023-02-12T15:22:30;9.20;99.90
7512;DHT22;9999;48.780;9.146;2023-02-12T15:25:22;9.10;99.90
7512;DHT22;9999;48.780;9.146;2023-02-12T15:27:52;9.10;99.90
7512;DHT22;9999;48.780;9.146;2023-02-12T15:30:23;9.10;99.90
7512;DHT22;9999;48.780;9.146;2023-02-12T15:32:51;8.90;99.90
7512;DHT22;9999;48.780;9.146;2023-02-12T15:35:23;8.90;99.90
7512;DHT22;9999;48.780;9.146;2023-02-12T15:37:52;8.90;99.90
7512;DHT22;9999;48.780;9.146;2023-02-12T15:40:20;8.80;99.90
7512;DHT22;9999;48.780;9.146;2023-02-12T15:42:52;8.80;99.90
7512;DHT22;9999;48.780;9.146;2023-02-12T15:45:23;8.80;99.90
7512;DHT22;9999;48.780;9.146;2023-02-12T15:48:01;8.60;99.90
7512;DHT22;9999;48.780;9.146;2023-02-12T15:50:29;8.50;99.90
7512;DHT22;9999;48.780;9.146;2023-02-12T15:52:57;8.60;99.90
7512;DHT22;9999;48.780;9.146;2023-02-12T15:55:26;8.50;99.90
7512;DHT22;9999;48.780;9.146;2023-02-12T15:57:57;8.40;99.90
7512;DHT22;9999;48.780;9.146;2023-02-12T16:00:30;8.30;99.90
7512;DHT22;9999;48.780;9.146;2023-02-12T16:02:57;8.30;99.90
7512;DHT22;9999;48.780;9.146;2023-02-12T16:05:25;8.30;99.90
7512;DHT22;9999;48.780;9.146;2023-02-12T16:07:52;8.20;99.90
7512;DHT22;9999;48.780;9.146;2023-02-12T16:10:20;8.00;99.90
7512;DHT22;9999;48.780;9.146;2023-02-12T16:12:48;7.90;99.90
7512;DHT22;9999;48.780;9.146;2023-02-12T16:15:24;7.90;99.90
7512;DHT22;9999;48.780;9.146;2023-02-12T16:17:53;7.80;99.90
7512;DHT22;9999;48.780;9.146;2023-02-12T16:20:23;7.80;99.90
7512;DHT22;9999;48.780;9.146;2023-02-12T16:22:52;7.90;99.90
7512;DHT22;9999;48.780;9.146;2023-02-12T16:25:21;7.90;99.90
7512;DHT22;9999;48.780;9.146;2023-02-12T16:27:55;7.80;99.90
7512;DHT22;9999;48.780;9.146;2023-02-12T16:33:47;7.60;99.90
7512;DHT22;9999;48.780;9.146;2023-02-12T16:36:32;7.60;99.90
7512;DHT22;9999;48.780;9.146;2023-02-12T16:42:15;7.60;99.90
7512;DHT22;9999;48.780;9.146;2023-02-12T16:44:43;7.50;99.90
7512;DHT22;9999;48.780;9.146;2023-02-12T16:47:18;7.40;99.90
7512;DHT22;9999;48.780;9.146;2023-02-12T16:49:53;7.40;99.90
7512;DHT22;9999;48.780;9.146;2023-02-12T16:52:33;7.40;99.90
7512;DHT22;9999;48.780;9.146;2023-02-12T16:55:00;7.40;99.90
7512;DHT22;9999;48.780;9.146;2023-02-12T16:57:28;7.40;99.90
7512;DHT22;9999;48.780;9.146;2023-02-12T16:59:54;7.40;99.90